createdAt,value
2018-10-12T00:00:53.347Z,19.09
2018-10-12T00:03:21.077Z,19.35
2018-10-12T00:05:48.619Z,19.26
2018-10-12T00:08:16.162Z,19.23
2018-10-12T00:54:23.644Z,18.68
2018-10-12T00:56:51.165Z,18.58
2018-10-12T00:59:18.733Z,18.76
2018-10-12T01:01:46.337Z,18.66
2018-10-12T01:04:13.858Z,18.80
2018-10-12T01:06:41.558Z,18.69
2018-10-12T01:09:09.069Z,18.76
2018-10-12T01:11:36.597Z,18.76
2018-10-12T01:14:04.142Z,18.88
2018-10-12T01:16:31.679Z,18.97
2018-10-12T01:18:59.373Z,18.85
2018-10-12T01:21:26.938Z,18.89
2018-10-12T01:23:54.568Z,18.82
2018-10-12T01:26:22.139Z,18.89
2018-10-12T01:28:49.716Z,18.72
2018-10-12T01:31:17.248Z,18.77
2018-10-12T01:33:44.780Z,18.83
2018-10-12T01:36:12.580Z,18.79
2018-10-12T01:38:40.204Z,18.78
2018-10-12T01:41:07.718Z,18.99
2018-10-12T01:43:35.236Z,18.86
2018-10-12T01:46:02.805Z,18.98
2018-10-12T01:48:30.359Z,19.00
2018-10-12T01:50:57.935Z,19.06
2018-10-12T01:53:25.497Z,18.96
2018-10-12T01:55:53.026Z,18.94
2018-10-12T01:58:20.578Z,18.94
2018-10-12T02:00:48.104Z,19.02
2018-10-12T02:03:15.673Z,18.89
2018-10-12T02:05:43.216Z,18.89
2018-10-12T02:08:10.769Z,18.82
2018-10-12T02:10:38.368Z,18.84
2018-10-12T02:13:05.927Z,18.84
2018-10-12T02:15:33.496Z,18.89
2018-10-12T02:18:01.039Z,18.94
2018-10-12T02:20:28.662Z,18.71
2018-10-12T02:22:56.184Z,18.90
2018-10-12T02:25:23.750Z,18.77
2018-10-12T02:27:51.265Z,18.68
2018-10-12T02:30:18.833Z,18.72
2018-10-12T02:32:46.349Z,18.80
2018-10-12T02:35:13.917Z,18.89
2018-10-12T02:37:41.482Z,18.80
2018-10-12T02:40:09.039Z,18.72
2018-10-12T02:42:36.566Z,18.52
2018-10-12T02:45:04.114Z,18.60
2018-10-12T02:47:31.632Z,18.87
2018-10-12T02:49:59.199Z,18.71
2018-10-12T02:52:26.704Z,18.63
2018-10-12T02:54:54.305Z,18.84
2018-10-12T02:57:21.884Z,18.84
2018-10-12T02:59:49.441Z,18.66
2018-10-12T03:02:16.978Z,18.91
2018-10-12T03:04:44.536Z,18.93
2018-10-12T03:07:12.058Z,18.81
2018-10-12T03:09:39.685Z,18.75
2018-10-12T03:12:07.394Z,18.90
2018-10-12T03:14:34.946Z,18.80
2018-10-12T03:17:02.480Z,18.81
2018-10-12T03:19:30.041Z,18.64
2018-10-12T03:21:57.609Z,18.74
2018-10-12T03:24:25.114Z,18.90
2018-10-12T03:26:52.787Z,18.87
2018-10-12T03:29:20.316Z,18.64
2018-10-12T03:31:47.858Z,18.72
2018-10-12T03:34:15.436Z,18.68
2018-10-12T03:36:42.965Z,18.59
2018-10-12T03:39:10.527Z,18.70
2018-10-12T03:41:38.059Z,18.59
2018-10-12T03:44:05.643Z,18.58
2018-10-12T03:46:33.185Z,18.55
2018-10-12T03:49:00.708Z,18.49
2018-10-12T03:51:28.290Z,18.76
2018-10-12T03:53:56.142Z,18.78
2018-10-12T03:56:23.693Z,18.84
2018-10-12T03:58:51.221Z,18.75
2018-10-12T04:01:18.820Z,18.35
2018-10-12T04:03:46.365Z,18.62
2018-10-12T04:06:13.945Z,18.54
2018-10-12T04:08:41.464Z,18.42
2018-10-12T04:11:09.024Z,18.44
2018-10-12T04:13:36.565Z,18.56
2018-10-12T04:16:04.155Z,18.53
2018-10-12T04:18:31.676Z,18.61
2018-10-12T04:20:59.208Z,18.57
2018-10-12T04:23:26.763Z,18.32
2018-10-12T04:25:54.555Z,18.13
2018-10-12T04:28:22.107Z,18.31
2018-10-12T04:30:49.639Z,18.27
2018-10-12T04:33:17.178Z,18.47
2018-10-12T04:35:44.704Z,18.30
2018-10-12T04:38:12.305Z,18.59
2018-10-12T04:40:39.894Z,18.38
2018-10-12T04:43:07.485Z,18.48
2018-10-12T04:45:35.013Z,18.34
2018-10-12T04:48:02.577Z,18.41
2018-10-12T04:50:30.101Z,18.40
2018-10-12T04:52:57.665Z,18.42
2018-10-12T04:55:25.197Z,18.39
2018-10-12T04:57:52.752Z,18.13
2018-10-12T05:00:20.269Z,18.30
2018-10-12T05:02:47.820Z,18.31
2018-10-12T05:05:15.376Z,18.34
2018-10-12T05:07:42.992Z,18.39
2018-10-12T05:10:10.503Z,18.19
2018-10-12T05:12:38.015Z,18.42
2018-10-12T05:15:05.584Z,18.39
2018-10-12T05:17:33.119Z,18.24
2018-10-12T05:20:00.678Z,18.03
2018-10-12T05:22:28.199Z,18.12
2018-10-12T05:24:55.750Z,18.00
2018-10-12T05:27:23.301Z,18.25
2018-10-12T05:29:50.852Z,18.24
2018-10-12T05:32:18.456Z,18.31
2018-10-12T05:34:46.147Z,18.34
2018-10-12T05:37:13.673Z,18.24
2018-10-12T05:39:41.231Z,18.20
2018-10-12T05:42:08.748Z,18.00
2018-10-12T05:44:36.303Z,17.87
2018-10-12T05:47:03.921Z,18.14
2018-10-12T05:49:41.248Z,18.13
2018-10-12T05:52:08.798Z,18.13
2018-10-12T05:54:36.368Z,18.21
2018-10-12T05:57:03.889Z,18.30
2018-10-12T05:59:31.460Z,17.87
2018-10-12T06:01:58.974Z,18.04
2018-10-12T06:04:26.525Z,18.02
2018-10-12T06:06:54.197Z,18.16
2018-10-12T06:09:21.786Z,18.24
2018-10-12T06:11:49.353Z,18.24
2018-10-12T06:14:16.899Z,18.24
2018-10-12T06:16:44.423Z,18.25
2018-10-12T06:19:11.974Z,18.20
2018-10-12T06:21:39.729Z,18.31
2018-10-12T06:24:07.171Z,18.16
2018-10-12T06:26:34.716Z,18.19
2018-10-12T06:29:02.312Z,18.15
2018-10-12T06:31:29.829Z,18.11
2018-10-12T06:33:57.524Z,18.24
2018-10-12T06:36:25.054Z,17.99
2018-10-12T06:38:52.651Z,18.17
2018-10-12T06:41:20.209Z,18.29
2018-10-12T06:43:47.791Z,18.17
2018-10-12T06:46:15.376Z,18.10
2018-10-12T06:48:43.193Z,18.24
2018-10-12T06:51:10.712Z,18.28
2018-10-12T06:53:38.251Z,18.37
2018-10-12T06:56:05.806Z,18.26
2018-10-12T06:58:33.336Z,18.24
2018-10-12T07:01:00.900Z,18.26
2018-10-12T07:03:28.410Z,18.36
2018-10-12T07:05:55.995Z,18.42
2018-10-12T07:08:23.513Z,18.23
2018-10-12T07:10:51.114Z,18.33
2018-10-12T07:13:18.641Z,18.23
2018-10-12T07:15:46.158Z,18.25
2018-10-12T07:18:13.718Z,18.36
2018-10-12T07:20:41.277Z,18.35
2018-10-12T07:23:08.807Z,18.29
2018-10-12T07:25:36.410Z,18.38
2018-10-12T07:28:03.942Z,18.34
2018-10-12T07:30:31.517Z,18.32
2018-10-12T07:32:59.054Z,18.55
2018-10-12T07:35:26.614Z,18.59
2018-10-12T07:37:54.187Z,18.68
2018-10-12T07:40:21.918Z,18.61
2018-10-12T07:42:49.879Z,18.64
2018-10-12T07:45:17.567Z,18.67
2018-10-12T07:47:45.502Z,18.75
2018-10-12T07:50:14.222Z,18.82
2018-10-12T07:52:43.102Z,18.85
2018-10-12T07:55:11.087Z,18.92
2018-10-12T07:57:40.096Z,18.92
2018-10-12T08:00:08.361Z,19.12
2018-10-12T08:02:37.115Z,19.13
2018-10-12T08:05:05.960Z,19.26
2018-10-12T08:07:34.427Z,19.35
2018-10-12T08:10:02.455Z,19.37
2018-10-12T08:12:30.289Z,19.44
2018-10-12T08:14:58.432Z,19.40
2018-10-12T08:17:26.485Z,19.51
2018-10-12T08:19:55.234Z,19.56
2018-10-12T08:22:23.868Z,19.57
2018-10-12T08:24:52.523Z,19.60
2018-10-12T08:27:24.074Z,19.70
2018-10-12T08:29:52.107Z,19.83
2018-10-12T08:32:21.149Z,19.83
2018-10-12T08:34:49.794Z,19.85
2018-10-12T08:37:17.718Z,19.91
2018-10-12T08:39:45.544Z,20.04
2018-10-12T08:42:13.434Z,20.07
2018-10-12T08:44:41.421Z,20.08
2018-10-12T08:47:09.493Z,20.10
2018-10-12T08:49:37.637Z,20.23
2018-10-12T08:52:05.741Z,20.23
2018-10-12T08:54:33.422Z,20.33
2018-10-12T08:57:01.412Z,20.31
2018-10-12T08:59:30.080Z,20.46
2018-10-12T09:01:58.190Z,20.49
2018-10-12T09:04:27.850Z,20.53
2018-10-12T09:06:56.764Z,20.71
2018-10-12T09:09:24.715Z,20.67
2018-10-12T09:11:53.149Z,20.69
2018-10-12T09:14:21.044Z,20.74
2018-10-12T09:16:48.773Z,20.87
2018-10-12T09:19:16.307Z,20.80
2018-10-12T09:21:44.326Z,20.73
2018-10-12T09:24:12.394Z,20.81
2018-10-12T09:26:40.311Z,20.87
2018-10-12T09:29:08.044Z,20.79
2018-10-12T09:31:36.055Z,20.70
2018-10-12T09:34:04.195Z,20.71
2018-10-12T09:36:32.180Z,20.68
2018-10-12T09:39:00.057Z,20.84
2018-10-12T09:41:30.033Z,20.80
2018-10-12T09:43:58.839Z,20.72
2018-10-12T09:46:29.204Z,20.91
2018-10-12T09:48:57.768Z,20.90
2018-10-12T09:51:26.831Z,21.04
2018-10-12T09:53:54.573Z,21.11
2018-10-12T09:56:22.213Z,21.27
2018-10-12T09:58:49.815Z,21.18
2018-10-12T10:01:32.411Z,21.15
2018-10-12T10:03:59.948Z,21.08
2018-10-12T10:06:28.941Z,21.11
2018-10-12T10:08:57.664Z,21.11
2018-10-12T10:11:27.088Z,21.25
2018-10-12T10:13:54.907Z,21.26
2018-10-12T10:16:23.513Z,21.35
2018-10-12T10:18:52.044Z,21.43
2018-10-12T10:21:21.047Z,21.28
2018-10-12T10:23:48.965Z,21.33
2018-10-12T10:26:17.820Z,21.46
2018-10-12T10:28:45.829Z,21.51
2018-10-12T10:31:13.776Z,21.74
2018-10-12T10:33:41.808Z,21.72
2018-10-12T10:36:09.841Z,21.95
2018-10-12T10:38:38.841Z,22.04
2018-10-12T10:41:06.889Z,22.06
2018-10-12T10:43:34.700Z,22.22
2018-10-12T10:46:02.285Z,22.35
2018-10-12T10:48:30.173Z,22.40
2018-10-12T10:50:58.059Z,22.49
2018-10-12T10:53:26.460Z,22.50
2018-10-12T10:55:55.094Z,22.62
2018-10-12T10:58:23.995Z,22.66
2018-10-12T11:00:54.778Z,22.69
2018-10-12T11:03:25.127Z,22.71
2018-10-12T11:05:52.918Z,22.84
2018-10-12T11:08:21.183Z,22.83
2018-10-12T11:10:49.041Z,22.81
2018-10-12T11:13:18.487Z,22.96
2018-10-12T11:15:47.317Z,22.99
2018-10-12T11:18:16.133Z,22.96
2018-10-12T11:20:43.986Z,22.95
2018-10-12T11:23:11.974Z,23.12
2018-10-12T11:25:39.835Z,23.09
2018-10-12T11:28:08.022Z,23.20
2018-10-12T11:30:35.875Z,23.34
2018-10-12T11:33:03.758Z,23.41
2018-10-12T11:35:31.305Z,23.43
2018-10-12T11:37:58.845Z,23.48
2018-10-12T11:40:26.435Z,23.49
2018-10-12T11:43:14.932Z,23.58
2018-10-12T11:45:42.843Z,23.71
2018-10-12T11:48:10.585Z,23.67
2018-10-12T11:50:38.282Z,23.80
2018-10-12T11:53:06.223Z,23.77
2018-10-12T11:55:33.846Z,23.93
2018-10-12T11:58:01.667Z,23.89
2018-10-12T12:00:29.294Z,23.79
2018-10-12T12:02:57.067Z,23.89
2018-10-12T12:05:25.133Z,23.88
2018-10-12T12:07:53.120Z,23.82
2018-10-12T12:10:20.776Z,23.86
2018-10-12T12:12:48.409Z,23.78
2018-10-12T12:15:16.180Z,23.88
2018-10-12T12:17:44.301Z,23.91
2018-10-12T12:20:12.217Z,24.04
2018-10-12T12:22:40.309Z,23.96
2018-10-12T12:25:08.013Z,24.03
2018-10-12T12:27:35.609Z,24.11
2018-10-12T12:30:03.168Z,24.19
2018-10-12T12:32:30.746Z,24.17
2018-10-12T12:34:58.477Z,24.23
2018-10-12T12:37:25.957Z,24.36
2018-10-12T12:39:53.510Z,24.41
2018-10-12T12:42:21.112Z,24.44
2018-10-12T12:44:48.747Z,24.48
2018-10-12T12:47:16.362Z,24.54
2018-10-12T12:49:43.940Z,24.59
2018-10-12T12:52:11.507Z,24.72
2018-10-12T12:54:39.481Z,24.87
2018-10-12T12:57:07.157Z,24.84
2018-10-12T12:59:34.818Z,24.93
2018-10-12T13:02:02.385Z,24.85
2018-10-12T13:04:29.957Z,24.72
2018-10-12T13:06:57.544Z,24.91
2018-10-12T13:09:25.236Z,24.96
2018-10-12T13:11:52.778Z,24.92
2018-10-12T13:14:20.339Z,25.07
2018-10-12T13:16:47.923Z,25.17
2018-10-12T13:19:15.476Z,25.17
2018-10-12T13:21:43.121Z,25.16
2018-10-12T13:24:10.764Z,25.30
2018-10-12T13:26:38.327Z,25.38
2018-10-12T13:29:06.085Z,25.30
2018-10-12T13:31:33.664Z,25.32
2018-10-12T13:34:01.292Z,25.34
2018-10-12T13:36:28.900Z,25.36
2018-10-12T13:38:56.708Z,25.48
2018-10-12T13:41:24.383Z,25.47
2018-10-12T13:43:52.030Z,25.52
2018-10-12T13:46:19.584Z,25.49
2018-10-12T13:48:47.151Z,25.47
2018-10-12T13:51:14.674Z,25.45
2018-10-12T13:53:42.380Z,25.57
2018-10-12T13:56:09.930Z,25.59
2018-10-12T13:58:37.593Z,25.64
2018-10-12T14:01:06.509Z,25.53
2018-10-12T14:03:34.046Z,25.71
2018-10-12T14:06:01.865Z,25.76
2018-10-12T14:08:29.477Z,25.72
2018-10-12T14:10:57.038Z,25.76
2018-10-12T14:13:24.651Z,25.62
2018-10-12T14:15:52.460Z,25.39
2018-10-12T14:18:20.199Z,25.57
2018-10-12T14:20:47.896Z,25.54
2018-10-12T14:23:15.621Z,25.52
2018-10-12T14:25:43.143Z,25.66
2018-10-12T14:28:10.709Z,25.40
2018-10-12T14:30:38.395Z,25.54
2018-10-12T14:33:06.184Z,25.37
2018-10-12T14:35:33.780Z,25.30
2018-10-12T14:38:01.593Z,25.50
2018-10-12T14:40:28.913Z,25.29
2018-10-12T14:42:56.442Z,25.28
2018-10-12T14:45:24.075Z,25.33
2018-10-12T14:47:51.605Z,25.40
2018-10-12T14:50:19.140Z,25.46
2018-10-12T14:52:46.798Z,25.30
2018-10-12T14:55:14.546Z,25.38
2018-10-12T14:57:42.072Z,25.47
2018-10-12T15:00:09.769Z,25.50
2018-10-12T15:02:37.301Z,25.54
2018-10-12T15:05:04.883Z,25.56
2018-10-12T15:07:32.423Z,25.63
2018-10-12T15:09:59.992Z,25.64
2018-10-12T15:12:27.656Z,25.60
2018-10-12T15:15:13.044Z,25.54
2018-10-12T15:17:40.769Z,25.46
2018-10-12T15:20:08.288Z,25.47
2018-10-12T15:22:35.858Z,25.45
2018-10-12T15:25:03.447Z,25.23
2018-10-12T15:27:31.126Z,25.19
2018-10-12T15:29:58.671Z,25.22
2018-10-12T15:32:26.418Z,25.07
2018-10-12T15:34:54.059Z,25.20
2018-10-12T15:37:21.655Z,25.21
2018-10-12T15:39:49.138Z,25.19
2018-10-12T15:42:16.680Z,25.00
2018-10-12T15:44:44.422Z,25.14
2018-10-12T15:47:12.093Z,24.98
2018-10-12T15:49:39.624Z,25.09
2018-10-12T15:52:07.485Z,25.11
2018-10-12T15:54:35.005Z,24.95
2018-10-12T15:57:02.634Z,24.77
2018-10-12T15:59:30.095Z,24.65
2018-10-12T16:01:57.838Z,24.81
2018-10-12T16:04:25.407Z,24.74
2018-10-12T16:06:52.941Z,24.84
2018-10-12T16:09:20.498Z,24.80
2018-10-12T16:11:48.016Z,24.82
2018-10-12T16:14:15.655Z,24.68
2018-10-12T16:16:43.243Z,24.74
2018-10-12T16:19:10.774Z,24.33
2018-10-12T16:21:38.365Z,24.45
2018-10-12T16:24:05.897Z,24.50
2018-10-12T16:26:33.488Z,24.40
2018-10-12T16:29:01.126Z,24.40
2018-10-12T16:31:28.655Z,24.21
2018-10-12T16:33:56.216Z,24.20
2018-10-12T16:36:23.865Z,24.17
2018-10-12T16:38:51.370Z,24.06
2018-10-12T16:41:18.927Z,24.12
2018-10-12T16:43:46.463Z,24.04
2018-10-12T16:46:14.073Z,23.99
2018-10-12T16:48:41.689Z,23.96
2018-10-12T16:51:09.226Z,23.76
2018-10-12T16:53:36.802Z,23.88
2018-10-12T16:56:04.359Z,24.00
2018-10-12T16:58:31.937Z,23.83
2018-10-12T17:00:59.504Z,23.80
2018-10-12T17:03:27.089Z,23.75
2018-10-12T17:05:54.671Z,23.41
2018-10-12T17:08:22.261Z,23.61
2018-10-12T17:10:49.855Z,23.52
2018-10-12T17:13:17.381Z,23.60
2018-10-12T17:15:44.942Z,23.60
2018-10-12T17:18:12.496Z,23.60
2018-10-12T17:20:40.142Z,23.68
2018-10-12T17:23:07.668Z,23.56
2018-10-12T17:25:35.400Z,23.34
2018-10-12T17:28:02.918Z,23.34
2018-10-12T17:30:30.510Z,23.32
2018-10-12T17:32:59.528Z,23.08
2018-10-12T17:35:27.061Z,23.26
2018-10-12T17:37:54.845Z,23.25
2018-10-12T17:40:22.537Z,23.16
2018-10-12T17:42:50.123Z,23.34
2018-10-12T17:45:17.832Z,23.00
2018-10-12T17:47:45.540Z,22.88
2018-10-12T17:50:13.123Z,22.96
2018-10-12T17:52:40.634Z,23.06
2018-10-12T17:55:08.217Z,23.09
2018-10-12T17:57:35.766Z,22.98
2018-10-12T18:00:03.630Z,23.02
2018-10-12T18:02:31.193Z,23.00
2018-10-12T18:04:58.736Z,22.82
2018-10-12T18:07:26.294Z,22.69
2018-10-12T18:09:53.864Z,22.69
2018-10-12T18:12:21.430Z,22.68
2018-10-12T18:14:48.956Z,22.74
2018-10-12T18:17:16.521Z,22.68
2018-10-12T18:19:44.175Z,22.70
2018-10-12T18:22:11.775Z,22.69
2018-10-12T18:24:39.318Z,22.67
2018-10-12T18:27:06.925Z,22.55
2018-10-12T18:29:34.616Z,22.52
2018-10-12T18:32:02.154Z,22.26
2018-10-12T18:34:29.730Z,22.49
2018-10-12T18:36:57.408Z,22.14
2018-10-12T18:39:25.027Z,22.46
2018-10-12T18:41:52.633Z,22.49
2018-10-12T18:44:20.171Z,22.48
2018-10-12T18:46:47.756Z,22.43
2018-10-12T18:49:15.314Z,22.37
2018-10-12T18:51:42.888Z,22.47
2018-10-12T18:54:10.442Z,22.44
2018-10-12T18:56:38.099Z,22.36
2018-10-12T18:59:05.632Z,22.41
2018-10-12T19:01:33.179Z,22.37
2018-10-12T19:04:00.755Z,22.44
2018-10-12T19:06:28.414Z,22.33
2018-10-12T19:08:55.934Z,22.24
2018-10-12T19:11:23.472Z,22.30
2018-10-12T19:13:51.270Z,22.26
2018-10-12T19:16:18.834Z,22.13
2018-10-12T19:18:46.344Z,22.17
2018-10-12T19:21:13.921Z,22.26
2018-10-12T19:23:41.467Z,22.31
2018-10-12T19:26:09.023Z,22.04
2018-10-12T19:28:36.592Z,22.22
2018-10-12T19:31:04.189Z,22.07
2018-10-12T19:33:31.791Z,22.07
2018-10-12T19:35:59.560Z,22.04
2018-10-12T19:38:27.153Z,21.77
2018-10-12T19:40:54.658Z,22.00
2018-10-12T19:43:22.193Z,22.00
2018-10-12T19:45:49.741Z,22.08
2018-10-12T19:48:17.306Z,21.92
2018-10-12T19:50:44.841Z,21.95
2018-10-12T19:53:12.356Z,21.75
2018-10-12T19:55:39.910Z,21.88
2018-10-12T19:58:07.482Z,21.69
2018-10-12T20:00:35.089Z,21.91
2018-10-12T20:03:02.606Z,21.66
2018-10-12T20:05:30.174Z,21.61
2018-10-12T20:07:57.709Z,21.84
2018-10-12T20:10:25.338Z,21.75
2018-10-12T20:12:52.859Z,21.84
2018-10-12T20:15:20.498Z,21.82
2018-10-12T20:17:48.132Z,21.88
2018-10-12T20:20:15.728Z,21.73
2018-10-12T20:22:43.239Z,21.79
2018-10-12T20:25:11.006Z,21.75
2018-10-12T20:27:38.841Z,21.69
2018-10-12T20:30:06.963Z,21.55
2018-10-12T20:32:34.748Z,21.40
2018-10-12T20:35:02.313Z,21.35
2018-10-12T20:37:30.089Z,21.46
2018-10-12T20:39:57.625Z,21.54
2018-10-12T20:42:25.213Z,21.59
2018-10-12T20:44:52.740Z,21.65
2018-10-12T20:47:20.274Z,21.65
2018-10-12T20:49:47.867Z,21.40
2018-10-12T20:52:15.428Z,21.43
2018-10-12T21:12:07.260Z,21.41
2018-10-12T21:14:35.262Z,21.36
2018-10-12T21:17:03.036Z,21.45
2018-10-12T21:19:30.624Z,21.34
2018-10-12T21:21:58.131Z,21.39
2018-10-12T21:33:03.892Z,21.37
2018-10-12T21:38:24.016Z,21.40
2018-10-12T21:40:51.745Z,21.44
2018-10-12T21:43:19.548Z,21.11
2018-10-12T21:45:47.137Z,21.34
2018-10-12T21:48:14.677Z,20.85
2018-10-12T21:50:42.303Z,21.18
2018-10-12T21:53:09.843Z,21.27
2018-10-12T21:55:37.418Z,21.31
2018-10-12T21:58:05.228Z,21.28
2018-10-12T22:00:32.779Z,21.34
2018-10-12T22:03:00.375Z,21.36
2018-10-12T22:05:27.911Z,21.14
2018-10-12T22:07:55.543Z,21.37
2018-10-12T22:10:23.757Z,21.40
2018-10-12T22:12:51.461Z,21.39
2018-10-12T22:15:19.035Z,21.33
2018-10-12T22:17:46.706Z,21.33
2018-10-12T22:23:26.380Z,21.39
2018-10-12T22:25:54.098Z,21.37
2018-10-12T22:51:22.865Z,21.12
2018-10-12T22:53:50.420Z,21.26
2018-10-12T22:56:18.151Z,21.28
2018-10-12T23:27:31.829Z,21.21
2018-10-12T23:29:59.398Z,21.11
2018-10-12T23:32:26.986Z,21.19
2018-10-12T23:34:54.556Z,21.10
2018-10-12T23:37:22.230Z,21.09
2018-10-12T23:39:50.092Z,21.20
2018-10-12T23:42:17.651Z,21.16
2018-10-12T23:44:45.261Z,21.13
2018-10-12T23:47:12.829Z,21.07
2018-10-12T23:49:40.575Z,21.08
2018-10-12T23:52:08.129Z,21.20
2018-10-12T23:54:35.658Z,21.17
2018-10-12T23:57:03.232Z,21.06
2018-10-12T23:59:31.005Z,21.07
